Time;durP1;ratioP1;P1;durP2;ratioP2;P2;SDS_P1;SDS_P2;PMS_P1;PMS_P2;Temp;Humidity;BMP_temperature;BMP_pressure;BME280_temperature;BME280_humidity;BME280_pressure;Samples;Min_cycle;Max_cycle;Signal;HPM_P1;HPM_P2
2022/02/03 00:02:50;;;;;;;14.32;8.32;;;;;;;;;;5104720;28;20394;-78
2022/02/03 00:08:07;;;;;;;15.88;10.63;;;;;;;;;;5107092;28;20110;-79
2022/02/03 00:16:27;;;;;;;21.90;13.45;;;;;;;;;;5115864;28;20070;-79
2022/02/03 00:24:40;;;;;;;18.23;11.15;;;;;;;;;;5116300;28;20047;-79
2022/02/03 00:27:24;;;;;;;17.10;11.45;;;;;;;;;;5115647;28;20049;-78
2022/02/03 00:29:57;;;;;;;16.60;11.20;;;;;;;;;;5115674;28;20020;-78
2022/02/03 00:38:03;;;;;;;16.23;11.98;;;;;;;;;;5115703;28;20105;-78
2022/02/03 00:51:18;;;;;;;10.65;5.95;;;;;;;;;;5114995;28;20192;-78
2022/02/03 00:53:45;;;;;;;11.90;8.05;;;;;;;;;;5115476;28;20559;-78
2022/02/03 00:56:16;;;;;;;11.32;8.18;;;;;;;;;;5096860;28;20104;-78
2022/02/03 00:58:53;;;;;;;16.35;9.57;;;;;;;;;;5115153;28;20097;-81
2022/02/03 01:01:20;;;;;;;18.98;10.90;;;;;;;;;;5115288;28;20028;-79
2022/02/03 01:03:53;;;;;;;12.38;8.38;;;;;;;;;;5115057;28;20424;-79
2022/02/03 01:06:21;;;;;;;13.68;9.43;;;;;;;;;;5115185;28;20023;-78
2022/02/03 01:08:49;;;;;;;13.77;9.00;;;;;;;;;;5114906;28;20084;-78
2022/02/03 01:11:23;;;;;;;15.52;9.88;;;;;;;;;;5115018;28;20111;-77
2022/02/03 01:14:02;;;;;;;14.05;8.27;;;;;;;;;;5114895;28;20027;-77
2022/02/03 01:33:32;;;;;;;9.43;5.30;;;;;;;;;;5092837;28;20035;-78
2022/02/03 01:44:26;;;;;;;6.68;4.40;;;;;;;;;;5114851;28;20527;-79
2022/02/03 01:46:54;;;;;;;5.70;4.63;;;;;;;;;;5111959;28;20114;-77
2022/02/03 01:49:39;;;;;;;6.03;4.63;;;;;;;;;;5114061;28;20089;-79
2022/02/03 01:52:10;;;;;;;6.85;4.78;;;;;;;;;;5114284;28;20036;-78
2022/02/03 01:54:37;;;;;;;6.53;4.05;;;;;;;;;;5114028;28;20032;-79
2022/02/03 01:57:16;;;;;;;5.82;4.35;;;;;;;;;;5114014;28;20027;-78
2022/02/03 01:59:46;;;;;;;5.82;4.38;;;;;;;;;;5114095;28;20027;-83
2022/02/03 02:02:12;;;;;;;5.90;4.25;;;;;;;;;;5113711;28;20059;-79
2022/02/03 02:04:56;;;;;;;6.38;4.53;;;;;;;;;;5114051;28;20065;-77
2022/02/03 02:07:43;;;;;;;4.80;4.00;;;;;;;;;;5113868;28;20034;-79
2022/02/03 02:10:39;;;;;;;5.82;4.38;;;;;;;;;;5113894;28;20023;-77
2022/02/03 02:19:05;;;;;;;6.53;5.15;;;;;;;;;;5113345;28;20074;-77
2022/02/03 02:38:30;;;;;;;3.50;3.05;;;;;;;;;;5113222;28;20064;-81
2022/02/03 02:44:01;;;;;;;3.88;2.67;;;;;;;;;;5113297;28;20106;-78
2022/02/03 02:47:08;;;;;;;3.50;3.00;;;;;;;;;;5113184;28;20020;-79
2022/02/03 02:49:47;;;;;;;4.57;3.00;;;;;;;;;;5010526;28;20041;-79
2022/02/03 02:52:20;;;;;;;4.53;3.30;;;;;;;;;;5010601;28;20500;-78
2022/02/03 02:55:31;;;;;;;4.18;2.65;;;;;;;;;;5010795;28;20046;-80
2022/02/03 03:38:17;;;;;;;4.57;3.03;;;;;;;;;;5092092;28;20044;-78
2022/02/03 03:40:47;;;;;;;5.13;3.97;;;;;;;;;;5092202;28;20103;-78
2022/02/03 03:43:17;;;;;;;5.28;3.85;;;;;;;;;;5092979;28;20039;-79
2022/02/03 03:45:48;;;;;;;4.82;2.90;;;;;;;;;;5095959;28;20374;-75
2022/02/03 03:48:17;;;;;;;4.47;3.60;;;;;;;;;;5096276;28;20483;-78
2022/02/03 03:50:47;;;;;;;3.90;3.03;;;;;;;;;;5109451;28;20047;-78
2022/02/03 03:53:22;;;;;;;5.18;3.90;;;;;;;;;;5116580;28;20024;-79
2022/02/03 03:56:05;;;;;;;5.38;3.50;;;;;;;;;;5116160;28;20043;-79
2022/02/03 04:50:55;;;;;;;4.80;3.35;;;;;;;;;;5115261;28;20485;-79
2022/02/03 05:03:58;;;;;;;8.30;5.40;;;;;;;;;;5115717;28;19911;-81
2022/02/03 05:12:45;;;;;;;6.07;5.20;;;;;;;;;;5114939;28;20028;-79
2022/02/03 05:24:39;;;;;;;7.18;4.90;;;;;;;;;;5109798;28;20027;-80
2022/02/03 05:54:50;;;;;;;6.82;5.43;;;;;;;;;;5114219;28;20027;-80
2022/02/03 06:24:47;;;;;;;11.85;7.88;;;;;;;;;;5113219;28;20444;-79
2022/02/03 06:27:28;;;;;;;8.63;6.25;;;;;;;;;;5085186;28;20081;-81
2022/02/03 06:29:58;;;;;;;7.78;5.80;;;;;;;;;;5092166;28;20107;-81
2022/02/03 06:32:25;;;;;;;10.73;7.60;;;;;;;;;;5095892;28;20016;-79
2022/02/03 06:34:51;;;;;;;10.95;8.75;;;;;;;;;;5095409;28;20437;-80
2022/02/03 06:37:19;;;;;;;8.80;7.90;;;;;;;;;;5092608;28;20040;-82
2022/02/03 06:39:45;;;;;;;11.32;7.70;;;;;;;;;;5081265;28;20031;-81
2022/02/03 06:42:12;;;;;;;11.68;8.90;;;;;;;;;;5093125;28;20483;-84
2022/02/03 06:44:43;;;;;;;16.17;12.70;;;;;;;;;;5092329;28;20053;-80
2022/02/03 06:47:18;;;;;;;11.63;7.75;;;;;;;;;;5092096;28;20555;-79
2022/02/03 06:49:58;;;;;;;11.70;7.43;;;;;;;;;;5092353;28;20083;-83
2022/02/03 06:52:41;;;;;;;10.85;7.50;;;;;;;;;;5071744;28;20638;-82
2022/02/03 06:55:13;;;;;;;13.27;9.02;;;;;;;;;;5087842;28;20036;-79
2022/02/03 06:58:06;;;;;;;20.05;11.18;;;;;;;;;;5091968;28;20410;-83
2022/02/03 07:00:34;;;;;;;23.80;14.27;;;;;;;;;;5091090;28;20036;-83
2022/02/03 07:03:02;;;;;;;8.85;5.15;;;;;;;;;;5093196;28;20039;-81
2022/02/03 07:05:28;;;;;;;11.43;8.35;;;;;;;;;;5072941;28;20032;-77
2022/02/03 07:07:55;;;;;;;13.98;8.93;;;;;;;;;;5091444;28;20051;-82
2022/02/03 07:10:22;;;;;;;11.43;9.30;;;;;;;;;;5088443;28;20036;-84
2022/02/03 07:12:48;;;;;;;13.98;9.50;;;;;;;;;;5079647;28;20487;-83
2022/02/03 07:15:15;;;;;;;11.35;8.63;;;;;;;;;;5072573;28;20127;-83
2022/02/03 07:17:41;;;;;;;11.13;6.30;;;;;;;;;;5084535;28;20035;-83
2022/02/03 07:20:08;;;;;;;9.27;7.70;;;;;;;;;;5091067;28;20039;-81
2022/02/03 07:22:35;;;;;;;10.48;7.68;;;;;;;;;;5073449;28;20051;-78
2022/02/03 07:25:02;;;;;;;9.43;6.57;;;;;;;;;;5087713;28;20089;-82
2022/02/03 07:27:28;;;;;;;9.90;8.50;;;;;;;;;;5081551;28;20024;-82
2022/02/03 07:29:54;;;;;;;9.05;6.38;;;;;;;;;;5082465;28;20035;-83
2022/02/03 07:32:21;;;;;;;8.30;5.80;;;;;;;;;;5082294;28;20048;-81
2022/02/03 07:34:50;;;;;;;8.18;6.50;;;;;;;;;;5086256;28;20428;-78
2022/02/03 07:37:17;;;;;;;9.57;7.05;;;;;;;;;;5071628;28;20056;-83
2022/02/03 07:39:44;;;;;;;11.07;6.78;;;;;;;;;;5070557;28;20044;-86
2022/02/03 07:42:10;;;;;;;6.93;5.32;;;;;;;;;;5085910;28;20132;-82
2022/02/03 07:44:36;;;;;;;8.88;6.35;;;;;;;;;;5072237;28;20457;-84
2022/02/03 07:47:02;;;;;;;7.15;6.45;;;;;;;;;;5073743;28;20024;-80
2022/02/03 07:49:30;;;;;;;8.77;6.88;;;;;;;;;;5088024;28;20503;-78
2022/02/03 07:51:56;;;;;;;10.57;7.57;;;;;;;;;;5090867;28;20039;-77
2022/02/03 07:54:22;;;;;;;9.65;6.90;;;;;;;;;;5083536;28;20039;-80
2022/02/03 07:56:48;;;;;;;9.05;7.47;;;;;;;;;;5082839;28;20107;-81
2022/02/03 07:59:14;;;;;;;9.77;7.03;;;;;;;;;;5081500;28;20468;-84
2022/02/03 08:01:41;;;;;;;8.50;7.60;;;;;;;;;;5085567;28;20030;-81
2022/02/03 08:04:10;;;;;;;8.57;6.30;;;;;;;;;;5071143;28;20036;-84
2022/02/03 08:06:44;;;;;;;8.82;6.78;;;;;;;;;;5089182;28;20076;-80
2022/02/03 08:09:20;;;;;;;7.53;6.18;;;;;;;;;;5086064;28;20103;-84
2022/02/03 08:11:49;;;;;;;13.23;6.93;;;;;;;;;;5082179;28;20032;-82
2022/02/03 08:14:22;;;;;;;9.30;7.63;;;;;;;;;;5071656;28;20151;-82
2022/02/03 08:16:57;;;;;;;7.20;5.78;;;;;;;;;;5085084;28;20032;-87
2022/02/03 08:22:19;;;;;;;11.32;7.25;;;;;;;;;;5093423;28;20050;-80
2022/02/03 08:27:39;;;;;;;8.35;6.82;;;;;;;;;;5092496;28;20041;-81
2022/02/03 08:32:35;;;;;;;12.35;7.28;;;;;;;;;;5099567;28;20093;-82
2022/02/03 08:40:22;;;;;;;;;;;;;;;;;;5097189;28;20043;-82
2022/02/03 08:42:48;;;;;;;8.63;6.32;;;;;;;;;;5087775;28;19962;-83
2022/02/03 08:45:15;;;;;;;9.23;8.27;;;;;;;;;;5076204;28;20035;-82
2022/02/03 08:47:43;;;;;;;11.88;9.55;;;;;;;;;;5076856;28;20036;-86
2022/02/03 08:50:10;;;;;;;9.25;6.93;;;;;;;;;;5084441;28;20055;-81
2022/02/03 08:52:40;;;;;;;9.20;7.55;;;;;;;;;;5069983;28;20036;-86
2022/02/03 08:55:35;;;;;;;8.98;7.15;;;;;;;;;;5067289;28;20032;-78
2022/02/03 09:28:24;;;;;;;;;;;;;;;;;;5073825;28;20429;-78
2022/02/03 09:58:23;;;;;;;11.93;8.65;;;;;;;;;;5109909;28;20089;-84
2022/02/03 10:03:31;;;;;;;14.02;9.98;;;;;;;;;;5092788;28;20097;-81
2022/02/03 10:08:49;;;;;;;15.52;8.95;;;;;;;;;;5092681;28;20127;-78
2022/02/03 10:11:39;;;;;;;9.45;7.10;;;;;;;;;;5091687;28;20022;-79
2022/02/03 10:14:05;;;;;;;8.38;7.47;;;;;;;;;;5074089;28;20392;-77
2022/02/03 10:16:33;;;;;;;8.02;6.55;;;;;;;;;;5091632;28;20028;-78
2022/02/03 10:19:14;;;;;;;9.60;6.90;;;;;;;;;;5073591;28;20062;-84
2022/02/03 10:21:43;;;;;;;9.20;8.25;;;;;;;;;;5092134;28;20460;-84
2022/02/03 10:24:15;;;;;;;8.90;6.40;;;;;;;;;;5092392;28;20032;-81
2022/02/03 10:26:45;;;;;;;10.38;8.98;;;;;;;;;;5068233;28;20016;-80
2022/02/03 10:29:13;;;;;;;13.27;9.90;;;;;;;;;;5074516;28;20498;-79
2022/02/03 10:31:43;;;;;;;8.05;7.18;;;;;;;;;;5071765;28;20021;-78
2022/02/03 10:34:13;;;;;;;11.68;7.20;;;;;;;;;;5090938;28;20035;-82
2022/02/03 10:40:01;;;;;;;9.00;7.03;;;;;;;;;;5071157;28;20546;-78
2022/02/03 10:42:23;;;;;;;9.63;7.78;;;;;;;;;;5084087;28;20041;-83
2022/02/03 11:11:50;;;;;;;13.15;10.30;;;;;;;;;;5111500;28;20046;-83
2022/02/03 11:14:16;;;;;;;10.38;6.45;;;;;;;;;;5092946;28;20063;-77
2022/02/03 11:16:43;;;;;;;11.27;8.93;;;;;;;;;;5111464;28;20031;-82
2022/02/03 11:19:14;;;;;;;9.52;8.55;;;;;;;;;;5104244;28;20509;-83
2022/02/03 11:21:47;;;;;;;10.68;9.48;;;;;;;;;;5079318;28;20031;-86
2022/02/03 11:24:22;;;;;;;13.35;9.85;;;;;;;;;;5083114;28;20047;-83
2022/02/03 11:27:06;;;;;;;;;;;;;;;;;;5096984;28;20078;-79
2022/02/03 11:38:06;;;;;;;11.25;8.30;;;;;;;;;;5111386;28;20444;-83
2022/02/03 11:51:54;;;;;;;;;;;;;;;;;;5092552;28;20063;-84
2022/02/03 11:57:28;;;;;;;13.38;8.80;;;;;;;;;;5101633;28;20038;-81
2022/02/03 12:11:06;;;;;;;11.57;9.02;;;;;;;;;;5093964;28;20058;-77
2022/02/03 12:19:17;;;;;;;8.45;6.93;;;;;;;;;;5105780;28;20529;-77
2022/02/03 12:22:01;;;;;;;7.82;7.00;;;;;;;;;;5096460;28;20031;-80
2022/02/03 12:27:15;;;;;;;8.13;6.50;;;;;;;;;;5099827;28;20435;-81
2022/02/03 12:29:53;;;;;;;9.40;7.50;;;;;;;;;;5105013;28;20402;-79
2022/02/03 12:33:03;;;;;;;6.65;5.50;;;;;;;;;;5102316;28;20056;-79
2022/02/03 12:38:33;;;;;;;6.60;5.57;;;;;;;;;;5100243;28;20578;-81
2022/02/03 12:43:35;;;;;;;9.02;5.25;;;;;;;;;;5099350;28;20055;-83
2022/02/03 12:46:03;;;;;;;7.97;6.00;;;;;;;;;;5098572;28;20056;-81
2022/02/03 12:48:30;;;;;;;11.13;8.80;;;;;;;;;;5109077;28;20024;-83
2022/02/03 12:50:56;;;;;;;12.73;6.80;;;;;;;;;;5114477;28;20088;-80
2022/02/03 12:53:23;;;;;;;9.23;8.32;;;;;;;;;;5107625;28;20094;-78
2022/02/03 12:55:53;;;;;;;10.77;8.10;;;;;;;;;;5081032;28;20039;-82
2022/02/03 12:58:25;;;;;;;7.93;7.13;;;;;;;;;;5112182;28;20165;-79
2022/02/03 13:03:43;;;;;;;8.25;7.30;;;;;;;;;;5104437;28;20111;-82
2022/02/03 13:06:16;;;;;;;9.73;8.40;;;;;;;;;;5086353;28;20043;-80
2022/02/03 13:09:04;;;;;;;10.88;7.75;;;;;;;;;;5105239;28;20386;-81
2022/02/03 13:14:24;;;;;;;10.25;8.02;;;;;;;;;;5078320;28;20058;-78
2022/02/03 13:17:11;;;;;;;9.68;7.38;;;;;;;;;;5110323;28;20059;-81
2022/02/03 13:19:50;;;;;;;11.77;8.98;;;;;;;;;;5095751;28;20071;-84
2022/02/03 13:22:27;;;;;;;9.30;6.55;;;;;;;;;;5094358;28;20039;-80
2022/02/03 13:30:28;;;;;;;8.18;7.07;;;;;;;;;;5091334;28;20039;-82
2022/02/03 13:32:58;;;;;;;9.57;7.40;;;;;;;;;;5089384;28;20078;-80
2022/02/03 13:35:30;;;;;;;11.40;7.82;;;;;;;;;;5088172;28;20461;-81
2022/02/03 13:38:05;;;;;;;10.60;9.30;;;;;;;;;;5109081;28;20478;-82
2022/02/03 13:40:32;;;;;;;9.85;7.75;;;;;;;;;;5110142;28;20474;-83
2022/02/03 13:43:02;;;;;;;9.77;7.20;;;;;;;;;;5100841;28;20032;-79
2022/02/03 13:45:28;;;;;;;7.90;5.63;;;;;;;;;;5093203;28;20028;-80
2022/02/03 13:47:57;;;;;;;11.00;7.95;;;;;;;;;;5074871;28;20092;-80
2022/02/03 13:50:31;;;;;;;9.30;8.20;;;;;;;;;;5113409;28;20047;-82
2022/02/03 13:53:05;;;;;;;9.50;7.37;;;;;;;;;;5101795;28;20100;-80
2022/02/03 14:28:32;;;;;;;17.80;10.93;;;;;;;;;;5081960;28;20406;-80
2022/02/03 14:31:02;;;;;;;12.70;10.38;;;;;;;;;;5113619;28;20047;-83
2022/02/03 14:33:37;;;;;;;14.15;11.52;;;;;;;;;;5113535;28;20031;-83
2022/02/03 14:36:14;;;;;;;17.67;11.32;;;;;;;;;;5113230;28;20382;-82
2022/02/03 14:41:17;;;;;;;15.20;12.35;;;;;;;;;;5106190;28;20036;-83
2022/02/03 14:43:43;;;;;;;16.13;10.25;;;;;;;;;;5101710;28;20036;-79
2022/02/03 14:46:15;;;;;;;14.65;10.95;;;;;;;;;;5097113;28;20082;-80
2022/02/03 14:48:43;;;;;;;27.38;15.98;;;;;;;;;;5104670;28;20072;-82
2022/02/03 14:51:11;;;;;;;14.75;11.88;;;;;;;;;;5082702;28;20047;-80
2022/02/03 14:53:54;;;;;;;21.08;18.80;;;;;;;;;;5102220;28;20501;-79
2022/02/03 14:59:05;;;;;;;;;;;;;;;;;;5094090;28;20418;-83
2022/02/03 15:01:32;;;;;;;16.13;11.95;;;;;;;;;;5102335;28;19908;-80
2022/02/03 15:04:25;;;;;;;12.88;10.13;;;;;;;;;;5109075;28;20024;-81
2022/02/03 15:06:58;;;;;;;18.65;14.63;;;;;;;;;;5097096;28;20055;-82
2022/02/03 15:10:14;;;;;;;9.35;8.07;;;;;;;;;;5100006;28;20047;-83
2022/02/03 15:15:12;;;;;;;14.20;9.65;;;;;;;;;;5071198;28;20093;-81
2022/02/03 15:17:38;;;;;;;15.75;12.35;;;;;;;;;;5100537;28;20084;-80
2022/02/03 15:20:05;;;;;;;13.25;11.10;;;;;;;;;;5101975;28;20026;-82
2022/02/03 15:22:32;;;;;;;20.00;15.57;;;;;;;;;;5079174;28;20027;-81
2022/02/03 15:25:00;;;;;;;12.63;10.57;;;;;;;;;;5098065;28;20035;-84
2022/02/03 15:27:26;;;;;;;13.18;10.68;;;;;;;;;;5100585;28;20085;-80
2022/02/03 15:29:53;;;;;;;10.80;9.25;;;;;;;;;;5085155;28;20501;-82
2022/02/03 15:32:19;;;;;;;17.88;12.23;;;;;;;;;;5109244;28;20157;-82
2022/02/03 15:34:48;;;;;;;11.07;9.20;;;;;;;;;;5100751;28;20024;-81
2022/02/03 15:37:16;;;;;;;14.18;11.65;;;;;;;;;;5090288;28;20482;-79
2022/02/03 15:39:51;;;;;;;13.98;10.35;;;;;;;;;;5108249;28;20032;-80
2022/02/03 15:42:20;;;;;;;16.98;12.63;;;;;;;;;;5100421;28;20021;-81
2022/02/03 15:44:51;;;;;;;18.17;14.30;;;;;;;;;;5100731;28;20030;-81
2022/02/03 15:47:28;;;;;;;14.75;11.27;;;;;;;;;;5103801;28;20028;-82
2022/02/03 16:17:01;;;;;;;12.82;10.10;;;;;;;;;;5103608;28;20051;-82
2022/02/03 16:19:36;;;;;;;17.05;8.55;;;;;;;;;;5103511;28;20071;-81
2022/02/03 16:22:09;;;;;;;13.20;9.43;;;;;;;;;;5095099;28;20532;-80
2022/02/03 16:24:58;;;;;;;10.05;7.93;;;;;;;;;;5101887;28;20058;-80
2022/02/03 16:54:21;;;;;;;9.93;7.43;;;;;;;;;;5093743;28;19934;-79
2022/02/03 16:56:51;;;;;;;11.65;8.35;;;;;;;;;;5094071;28;20032;-78
2022/02/03 16:59:17;;;;;;;11.15;7.22;;;;;;;;;;5096558;28;20078;-79
2022/02/03 17:01:44;;;;;;;9.65;7.72;;;;;;;;;;5105688;28;20721;-79
2022/02/03 17:04:17;;;;;;;8.40;7.43;;;;;;;;;;5104403;28;20035;-84
2022/02/03 17:06:44;;;;;;;9.88;7.80;;;;;;;;;;5103598;28;20027;-80
2022/02/03 17:09:10;;;;;;;8.63;6.97;;;;;;;;;;5105015;28;20024;-83
2022/02/03 17:11:36;;;;;;;10.50;7.93;;;;;;;;;;5102109;28;20020;-82
2022/02/03 17:14:02;;;;;;;9.15;7.38;;;;;;;;;;5104985;28;20030;-81
2022/02/03 17:16:28;;;;;;;13.93;9.63;;;;;;;;;;5104527;28;20035;-81
2022/02/03 17:18:56;;;;;;;10.70;7.20;;;;;;;;;;5103798;28;20031;-80
2022/02/03 17:21:26;;;;;;;9.15;7.13;;;;;;;;;;5104507;28;20066;-80
2022/02/03 17:23:52;;;;;;;7.75;6.20;;;;;;;;;;5104694;28;20394;-82
2022/02/03 17:26:30;;;;;;;9.10;6.95;;;;;;;;;;5104656;28;20113;-73
2022/02/03 17:31:50;;;;;;;23.42;16.75;;;;;;;;;;5092815;28;20062;-72
2022/02/03 18:05:11;;;;;;;11.35;8.60;;;;;;;;;;5094272;28;20034;-80
2022/02/03 18:10:11;;;;;;;22.70;14.38;;;;;;;;;;5066838;28;20036;-81
2022/02/03 18:27:13;;;;;;;;;;;;;;;;;;5061682;28;20044;-80
2022/02/03 18:51:02;;;;;;;24.48;17.50;;;;;;;;;;5086914;28;19922;-79
2022/02/03 18:53:38;;;;;;;18.00;12.50;;;;;;;;;;5092903;28;20032;-81
2022/02/03 19:01:19;;;;;;;27.23;18.40;;;;;;;;;;5092419;28;20465;-80
2022/02/03 20:01:16;;;;;;;18.48;12.85;;;;;;;;;;5092117;28;20043;-79
2022/02/03 20:03:59;;;;;;;22.73;15.13;;;;;;;;;;5091829;28;20075;-80
2022/02/03 20:11:42;;;;;;;22.67;15.73;;;;;;;;;;5083133;28;20087;-80
2022/02/03 20:14:12;;;;;;;15.93;9.15;;;;;;;;;;5073790;28;20444;-82
2022/02/03 20:16:38;;;;;;;16.85;11.15;;;;;;;;;;5092221;28;20057;-82
2022/02/03 20:19:04;;;;;;;27.35;18.05;;;;;;;;;;5091833;28;20433;-81
2022/02/03 20:21:33;;;;;;;23.85;16.20;;;;;;;;;;5092019;28;20028;-79
2022/02/03 20:23:59;;;;;;;19.88;14.32;;;;;;;;;;5091836;28;20435;-80
2022/02/03 20:26:25;;;;;;;33.72;22.73;;;;;;;;;;5094347;28;20035;-79
2022/02/03 20:28:52;;;;;;;39.35;26.20;;;;;;;;;;5095857;28;20024;-79
2022/02/03 20:31:18;;;;;;;26.08;18.65;;;;;;;;;;5095481;28;20020;-81
2022/02/03 20:33:44;;;;;;;16.73;12.20;;;;;;;;;;5095698;28;20028;-82
2022/02/03 20:36:10;;;;;;;20.75;13.68;;;;;;;;;;5095534;28;20024;-79
2022/02/03 20:38:37;;;;;;;17.60;11.27;;;;;;;;;;5095354;28;20036;-82
2022/02/03 20:41:04;;;;;;;14.07;7.97;;;;;;;;;;5095547;28;20070;-81
2022/02/03 20:43:30;;;;;;;14.18;9.10;;;;;;;;;;5095049;28;20028;-81
2022/02/03 20:45:57;;;;;;;11.75;8.45;;;;;;;;;;5095194;28;20091;-80
2022/02/03 20:48:25;;;;;;;14.45;9.68;;;;;;;;;;5095178;28;20028;-80
2022/02/03 20:50:52;;;;;;;74.47;42.42;;;;;;;;;;5095326;28;20044;-80
2022/02/03 20:53:18;;;;;;;15.30;9.13;;;;;;;;;;5077205;28;20028;-81
2022/02/03 20:55:45;;;;;;;7.05;6.05;;;;;;;;;;5095356;28;20032;-82
2022/02/03 20:58:15;;;;;;;9.00;6.60;;;;;;;;;;5094903;28;20141;-81
2022/02/03 21:03:43;;;;;;;29.55;19.90;;;;;;;;;;5085838;28;20032;-79
2022/02/03 21:06:11;;;;;;;23.40;16.25;;;;;;;;;;5094809;28;20058;-80
2022/02/03 21:08:40;;;;;;;21.77;15.05;;;;;;;;;;5095112;28;20024;-81
2022/02/03 21:11:07;;;;;;;12.68;8.00;;;;;;;;;;5094726;28;20035;-79
2022/02/03 21:13:33;;;;;;;8.98;6.30;;;;;;;;;;5076675;28;20078;-79
2022/02/03 21:16:02;;;;;;;6.43;5.68;;;;;;;;;;5094766;28;20383;-79
2022/02/03 21:18:30;;;;;;;7.65;5.47;;;;;;;;;;5077680;28;20093;-80
2022/02/03 21:20:57;;;;;;;7.05;4.57;;;;;;;;;;5076039;28;20028;-79
2022/02/03 21:23:23;;;;;;;62.28;35.15;;;;;;;;;;5094625;28;20114;-79
2022/02/03 21:25:53;;;;;;;41.42;24.20;;;;;;;;;;5094552;28;20028;-80
2022/02/03 21:28:24;;;;;;;34.00;21.70;;;;;;;;;;5094313;28;20032;-79
2022/02/03 21:30:51;;;;;;;36.83;25.15;;;;;;;;;;5094453;28;20024;-80
2022/02/03 21:33:26;;;;;;;23.05;16.45;;;;;;;;;;5098024;28;20024;-80
2022/02/03 21:35:56;;;;;;;30.65;20.30;;;;;;;;;;5114912;28;20498;-80
2022/02/03 21:38:22;;;;;;;37.60;25.50;;;;;;;;;;5078449;28;20028;-80
2022/02/03 21:40:48;;;;;;;28.13;20.13;;;;;;;;;;5094183;28;20040;-79
2022/02/03 21:43:15;;;;;;;17.25;13.27;;;;;;;;;;5094064;28;20028;-79
2022/02/03 21:45:41;;;;;;;9.52;6.13;;;;;;;;;;5094023;28;20031;-79
2022/02/03 21:48:07;;;;;;;9.75;6.93;;;;;;;;;;5094113;28;20028;-80
2022/02/03 21:50:37;;;;;;;7.18;4.78;;;;;;;;;;5082100;28;20079;-79
2022/02/03 21:53:11;;;;;;;13.90;10.50;;;;;;;;;;5073822;28;20031;-79
2022/02/03 21:55:37;;;;;;;15.03;7.30;;;;;;;;;;5055737;28;20044;-80
2022/02/03 21:58:04;;;;;;;12.95;8.02;;;;;;;;;;5056084;28;20307;-79
2022/02/03 22:00:31;;;;;;;12.20;7.68;;;;;;;;;;5073368;28;20037;-79
2022/02/03 22:02:58;;;;;;;10.65;8.50;;;;;;;;;;5055929;28;20118;-78
2022/02/03 22:05:24;;;;;;;16.50;11.98;;;;;;;;;;5073537;28;20031;-79
2022/02/03 22:07:50;;;;;;;21.55;14.93;;;;;;;;;;5073508;28;20024;-80
2022/02/03 22:10:18;;;;;;;35.38;22.90;;;;;;;;;;5073501;28;20033;-79
2022/02/03 22:12:45;;;;;;;31.20;22.42;;;;;;;;;;5073338;28;20028;-80
2022/02/03 22:15:11;;;;;;;43.20;28.00;;;;;;;;;;5073462;28;20528;-79
2022/02/03 22:17:38;;;;;;;34.03;23.15;;;;;;;;;;5054926;28;20536;-80
2022/02/03 22:20:17;;;;;;;37.83;27.15;;;;;;;;;;5065973;28;20497;-80
2022/02/03 22:49:45;;;;;;;20.70;11.55;;;;;;;;;;5096824;28;20048;-80
2022/02/03 22:52:16;;;;;;;19.08;12.25;;;;;;;;;;5113345;28;20031;-81
2022/02/03 22:54:42;;;;;;;20.88;13.38;;;;;;;;;;5113389;28;20024;-80
2022/02/03 22:57:09;;;;;;;16.58;10.82;;;;;;;;;;5113339;28;20100;-79
2022/02/03 23:02:02;;;;;;;13.65;8.57;;;;;;;;;;5113145;28;20499;-79
2022/02/03 23:04:29;;;;;;;13.52;9.93;;;;;;;;;;5094392;28;20474;-80
2022/02/03 23:07:05;;;;;;;13.35;9.45;;;;;;;;;;5113049;28;20108;-79
2022/02/03 23:09:43;;;;;;;32.60;19.27;;;;;;;;;;5112780;28;20031;-78
2022/02/03 23:24:43;;;;;;;19.17;12.68;;;;;;;;;;5098219;28;20104;-80
2022/02/03 23:29:50;;;;;;;21.42;12.52;;;;;;;;;;5086886;28;20031;-80
2022/02/03 23:32:18;;;;;;;18.30;12.23;;;;;;;;;;5084627;28;20036;-82
2022/02/03 23:34:53;;;;;;;19.13;12.88;;;;;;;;;;5098481;28;20529;-79
2022/02/03 23:37:20;;;;;;;14.73;8.77;;;;;;;;;;5100564;28;20024;-80
2022/02/03 23:40:06;;;;;;;18.30;11.00;;;;;;;;;;5101898;28;20031;-81
2022/02/03 23:45:30;;;;;;;23.35;14.23;;;;;;;;;;5101588;28;20042;-79
2022/02/03 23:51:05;;;;;;;28.52;15.85;;;;;;;;;;5102598;28;20513;-80
